Time;durP1;ratioP1;P1;durP2;ratioP2;P2;SDS_P1;SDS_P2;PMS_P1;PMS_P2;Temp;Humidity;BMP_temperature;BMP_pressure;BME280_temperature;BME280_humidity;BME280_pressure;Samples;Min_cycle;Max_cycle;Signal;HPM_P1;HPM_P2
2023/06/23 00:00:52;;;;;;;11.68;8.02;;;;;;;20.98;65.75;102094.88;5031213;28;20041;-44
2023/06/23 00:03:18;;;;;;;14.50;9.05;;;;;;;20.88;66.13;102102.97;5030659;28;20045;-48
2023/06/23 00:05:43;;;;;;;14.40;8.95;;;;;;;20.88;66.78;102106.50;5029987;28;20037;-43
2023/06/23 00:08:08;;;;;;;13.20;8.90;;;;;;;20.77;66.76;102108.38;5030525;28;20033;-47
2023/06/23 00:10:34;;;;;;;12.35;8.35;;;;;;;20.84;66.39;102103.88;5029603;28;20033;-48
2023/06/23 00:13:00;;;;;;;12.98;8.02;;;;;;;20.73;66.52;102097.81;5029837;28;20468;-49
2023/06/23 00:15:25;;;;;;;13.10;9.23;;;;;;;20.78;66.84;102102.19;5029650;28;20656;-45
2023/06/23 00:17:50;;;;;;;15.57;9.43;;;;;;;20.78;66.72;102094.22;5029587;28;20100;-47
2023/06/23 00:20:16;;;;;;;17.58;12.18;;;;;;;20.63;67.91;102102.31;5029427;28;20061;-44
2023/06/23 00:22:43;;;;;;;21.10;13.73;;;;;;;20.39;69.92;102105.16;5029925;28;20132;-45
2023/06/23 00:25:10;;;;;;;22.52;15.00;;;;;;;20.38;70.75;102098.97;5029998;28;20029;-46
2023/06/23 00:27:42;;;;;;;22.33;15.73;;;;;;;20.38;71.36;102088.38;5029112;28;20056;-43
2023/06/23 00:30:08;;;;;;;26.73;17.13;;;;;;;20.31;71.96;102088.41;5029903;28;20030;-44
2023/06/23 00:32:33;;;;;;;32.47;20.73;;;;;;;20.34;72.72;102083.13;5028670;28;20103;-48
2023/06/23 00:34:59;;;;;;;33.92;21.20;;;;;;;20.32;73.31;102084.84;5029668;28;20033;-44
2023/06/23 00:37:25;;;;;;;37.92;23.60;;;;;;;20.21;74.11;102090.25;5028930;28;20033;-44
2023/06/23 00:39:50;;;;;;;35.80;22.65;;;;;;;20.45;73.45;102095.38;5028268;28;20053;-43
2023/06/23 00:42:16;;;;;;;37.13;23.90;;;;;;;20.57;72.68;102095.28;5029450;28;20523;-44
2023/06/23 00:44:41;;;;;;;37.60;23.77;;;;;;;20.72;72.29;102094.28;5029021;28;20120;-45
2023/06/23 00:47:08;;;;;;;37.78;23.23;;;;;;;20.84;71.69;102099.47;5029993;28;20065;-45
2023/06/23 00:49:35;;;;;;;40.15;24.20;;;;;;;20.64;72.58;102104.94;5030235;28;20080;-44
2023/06/23 00:52:07;;;;;;;39.85;24.88;;;;;;;20.59;72.79;102106.75;5030140;28;20037;-47
2023/06/23 00:54:34;;;;;;;42.25;23.92;;;;;;;20.67;72.57;102116.41;5029010;28;20037;-47
2023/06/23 00:56:59;;;;;;;43.08;24.15;;;;;;;20.73;72.21;102111.94;5029003;28;20056;-48
2023/06/23 00:59:28;;;;;;;40.42;24.15;;;;;;;20.75;72.00;102104.84;5028801;28;20124;-47
2023/06/23 01:01:57;;;;;;;43.05;24.20;;;;;;;20.70;72.39;102108.44;5029904;28;20033;-43
2023/06/23 01:04:22;;;;;;;40.78;23.95;;;;;;;20.51;73.23;102115.66;5029461;28;20044;-43
2023/06/23 01:07:05;;;;;;;41.42;23.25;;;;;;;20.66;72.90;102128.78;5030008;28;20029;-46
2023/06/23 01:10:03;;;;;;;38.47;21.33;;;;;;;20.79;71.99;102125.16;5029552;28;20069;-48
2023/06/23 01:12:50;;;;;;;36.35;20.15;;;;;;;20.81;71.47;102126.00;5008639;28;20044;-45
2023/06/23 01:15:36;;;;;;;37.47;20.50;;;;;;;20.78;71.17;102136.63;5029539;28;20042;-46
2023/06/23 01:18:13;;;;;;;35.70;19.55;;;;;;;20.79;70.98;102137.50;5029408;28;20410;-44
2023/06/23 01:20:41;;;;;;;34.75;18.95;;;;;;;20.78;70.83;102141.06;5029135;28;20037;-47
2023/06/23 01:23:11;;;;;;;35.97;21.08;;;;;;;20.67;71.51;102142.00;5029704;28;20044;-44
2023/06/23 01:25:50;;;;;;;35.65;20.77;;;;;;;20.63;72.02;102137.63;5029040;28;20400;-46
2023/06/23 01:28:28;;;;;;;39.65;20.55;;;;;;;20.64;71.65;102136.75;5028961;28;20385;-43
2023/06/23 01:30:55;;;;;;;36.13;21.00;;;;;;;20.55;72.34;102131.50;5029408;28;20053;-46
2023/06/23 01:33:26;;;;;;;39.42;22.05;;;;;;;20.40;72.81;102141.34;5028808;28;20033;-45
2023/06/23 01:36:00;;;;;;;38.38;22.27;;;;;;;20.38;73.11;102145.75;5029329;28;20103;-43
2023/06/23 01:38:38;;;;;;;37.53;20.85;;;;;;;20.49;72.68;102154.53;5029129;28;20518;-45
2023/06/23 01:41:11;;;;;;;37.17;20.45;;;;;;;20.54;72.16;102164.22;5031292;28;20044;-43
2023/06/23 01:43:38;;;;;;;38.78;20.80;;;;;;;20.53;72.25;102162.44;5031509;28;20032;-50
2023/06/23 01:46:16;;;;;;;40.42;21.80;;;;;;;20.37;73.04;102166.06;5033425;28;20108;-44
2023/06/23 01:48:46;;;;;;;39.45;21.48;;;;;;;20.39;73.32;102164.31;5033904;28;20048;-44
2023/06/23 01:51:12;;;;;;;38.95;21.00;;;;;;;20.38;73.90;102173.13;5033623;28;20122;-44
2023/06/23 01:53:39;;;;;;;41.55;22.17;;;;;;;20.36;73.71;102172.28;5032407;28;20077;-47
2023/06/23 01:56:07;;;;;;;45.08;22.55;;;;;;;20.30;74.11;102171.41;5032201;28;20045;-47
2023/06/23 01:58:37;;;;;;;45.08;22.25;;;;;;;20.31;74.27;102171.38;5032240;28;20041;-45
2023/06/23 02:01:04;;;;;;;44.17;22.33;;;;;;;20.35;74.01;102181.13;5033219;28;20083;-44
2023/06/23 02:03:30;;;;;;;45.58;23.50;;;;;;;20.45;73.64;102184.56;5032516;28;20060;-47
2023/06/23 02:05:56;;;;;;;43.05;22.63;;;;;;;20.50;73.56;102183.66;5033214;28;20504;-45
2023/06/23 02:08:24;;;;;;;50.40;24.77;;;;;;;20.17;75.25;102179.44;5031635;28;20045;-48
2023/06/23 02:10:53;;;;;;;47.10;24.20;;;;;;;20.31;75.01;102186.41;5032503;28;20033;-45
2023/06/23 02:13:20;;;;;;;46.63;24.25;;;;;;;20.21;75.33;102193.50;5031961;28;20029;-43
2023/06/23 02:15:47;;;;;;;47.15;25.13;;;;;;;20.31;75.17;102197.84;5032313;28;20519;-46
2023/06/23 02:18:16;;;;;;;48.83;25.30;;;;;;;20.41;75.07;102206.69;5032450;28;20033;-45
2023/06/23 02:20:43;;;;;;;44.40;23.92;;;;;;;20.54;74.42;102203.06;5031594;28;20491;-45
2023/06/23 02:23:09;;;;;;;45.00;24.90;;;;;;;20.51;74.41;102201.31;5034272;28;20042;-43
2023/06/23 02:25:35;;;;;;;47.25;25.25;;;;;;;20.48;74.16;102203.09;5032708;28;20408;-46
2023/06/23 02:28:01;;;;;;;46.08;25.42;;;;;;;20.48;74.37;102205.75;5032797;28;20037;-47
2023/06/23 02:30:29;;;;;;;48.90;25.25;;;;;;;20.31;75.11;102212.91;5032892;28;20033;-44
2023/06/23 02:32:56;;;;;;;44.63;23.88;;;;;;;20.34;75.23;102220.84;5033057;28;20025;-43
2023/06/23 02:35:22;;;;;;;41.20;22.83;;;;;;;20.47;74.46;102220.78;5031943;28;20041;-46
2023/06/23 02:37:58;;;;;;;40.15;23.65;;;;;;;20.41;74.19;102226.09;5031458;28;20632;-43
2023/06/23 02:40:26;;;;;;;43.80;24.00;;;;;;;20.39;74.19;102225.22;5031368;28;20037;-44
2023/06/23 02:43:22;;;;;;;43.45;23.45;;;;;;;20.41;74.44;102222.56;5032023;28;20033;-48
2023/06/23 02:45:52;;;;;;;41.00;23.05;;;;;;;20.35;74.46;102218.19;5024800;28;20518;-44
2023/06/23 02:48:21;;;;;;;40.92;22.90;;;;;;;20.39;74.05;102229.63;5031565;28;20038;-48
2023/06/23 02:50:48;;;;;;;41.60;22.83;;;;;;;20.37;74.04;102219.03;5032759;28;20067;-44
2023/06/23 02:53:21;;;;;;;40.75;22.05;;;;;;;20.41;73.62;102220.81;5032588;28;20065;-47
2023/06/23 02:55:49;;;;;;;42.92;24.00;;;;;;;20.19;74.52;102219.09;5030428;28;20029;-43
2023/06/23 02:58:17;;;;;;;39.33;22.55;;;;;;;20.35;73.92;102212.91;5032034;28;20040;-43
2023/06/23 03:00:44;;;;;;;36.88;22.00;;;;;;;20.34;74.14;102219.06;5031995;28;20033;-43
2023/06/23 03:03:14;;;;;;;36.55;21.17;;;;;;;20.36;74.11;102214.66;5032343;28;20113;-43
2023/06/23 03:05:40;;;;;;;39.28;21.60;;;;;;;20.23;74.89;102213.81;5031847;28;20034;-47
2023/06/23 03:08:06;;;;;;;36.85;21.60;;;;;;;20.38;73.91;102220.81;5031618;28;20100;-43
2023/06/23 03:10:32;;;;;;;35.33;20.80;;;;;;;20.41;73.50;102222.56;5031722;28;20186;-44
2023/06/23 03:13:00;;;;;;;35.22;21.17;;;;;;;20.31;73.79;102226.16;5032155;28;20034;-45
2023/06/23 03:15:26;;;;;;;31.13;19.30;;;;;;;20.41;73.43;102222.56;5032303;28;20044;-48
2023/06/23 03:18:11;;;;;;;32.47;19.10;;;;;;;20.40;72.85;102234.94;5036607;28;20568;-47
2023/06/23 03:20:50;;;;;;;28.90;17.90;;;;;;;20.41;72.71;102251.72;5032179;28;20091;-45
2023/06/23 03:23:17;;;;;;;27.13;17.25;;;;;;;20.40;72.60;102252.59;5030872;28;20049;-47
2023/06/23 03:25:46;;;;;;;26.35;16.77;;;;;;;20.34;72.69;102250.88;5030692;28;20060;-44
2023/06/23 03:28:17;;;;;;;29.60;17.38;;;;;;;20.34;72.90;102253.50;5030770;28;20068;-44
2023/06/23 03:30:47;;;;;;;27.35;17.33;;;;;;;20.31;72.60;102257.94;5030695;28;20029;-43
2023/06/23 03:33:24;;;;;;;32.80;18.25;;;;;;;20.38;72.75;102265.84;5030929;28;20041;-44
2023/06/23 03:35:52;;;;;;;29.65;17.52;;;;;;;20.41;72.37;102267.59;5030467;28;20040;-47
2023/06/23 03:38:20;;;;;;;26.77;16.30;;;;;;;20.39;72.58;102267.59;5030668;28;20045;-44
2023/06/23 03:41:02;;;;;;;28.40;17.30;;;;;;;20.53;73.08;102267.53;5031409;28;20113;-48
2023/06/23 03:43:35;;;;;;;32.67;17.80;;;;;;;20.54;73.65;102262.25;5034640;28;20029;-46
2023/06/23 03:46:06;;;;;;;31.30;17.30;;;;;;;20.67;73.39;102270.13;5033472;28;20087;-49
2023/06/23 03:48:36;;;;;;;31.23;17.50;;;;;;;20.75;73.61;102273.59;5033664;28;20041;-44
2023/06/23 03:51:03;;;;;;;31.77;17.55;;;;;;;20.87;73.36;102277.03;5031130;28;20037;-49
2023/06/23 03:53:30;;;;;;;33.00;18.98;;;;;;;20.88;73.23;102277.91;5030276;28;20098;-48
2023/06/23 03:55:57;;;;;;;32.90;18.80;;;;;;;20.85;73.71;102286.78;5032228;28;20053;-49
2023/06/23 03:58:24;;;;;;;32.15;19.33;;;;;;;20.93;73.54;102282.28;5033470;28;20037;-48
2023/06/23 04:00:52;;;;;;;31.85;19.15;;;;;;;21.01;73.46;102284.91;5034274;28;20056;-44
2023/06/23 04:03:19;;;;;;;33.97;20.52;;;;;;;20.85;73.93;102286.78;5034740;28;20442;-46
2023/06/23 04:05:46;;;;;;;33.50;20.23;;;;;;;20.80;74.37;102293.88;5029924;28;20040;-46
2023/06/23 04:08:14;;;;;;;32.13;19.80;;;;;;;20.73;74.62;102300.13;5030357;28;20048;-45
2023/06/23 04:10:39;;;;;;;36.00;20.73;;;;;;;20.61;75.95;102302.84;5030077;28;20040;-44
2023/06/23 04:13:07;;;;;;;33.58;19.40;;;;;;;20.74;75.03;102306.31;5030436;28;20029;-43
2023/06/23 04:15:35;;;;;;;31.38;20.05;;;;;;;20.93;75.07;102305.28;5031960;28;20041;-45
2023/06/23 04:18:02;;;;;;;32.72;20.67;;;;;;;20.91;74.89;102305.31;5029757;28;20072;-45
2023/06/23 04:20:29;;;;;;;33.83;20.58;;;;;;;20.81;75.75;102308.88;5031700;28;20124;-51
2023/06/23 04:22:56;;;;;;;35.25;21.63;;;;;;;21.09;74.67;102306.94;5034615;28;20089;-47
2023/06/23 04:25:23;;;;;;;36.17;21.55;;;;;;;21.14;74.49;102305.13;5029623;28;20038;-46
2023/06/23 04:27:52;;;;;;;37.78;21.23;;;;;;;21.12;74.54;102298.94;5029321;28;20057;-47
2023/06/23 04:30:19;;;;;;;35.17;20.67;;;;;;;21.21;74.32;102300.69;5029162;28;20103;-48
2023/06/23 04:32:45;;;;;;;32.00;20.00;;;;;;;21.14;74.28;102309.56;5029551;28;20038;-46
2023/06/23 04:35:11;;;;;;;32.90;19.80;;;;;;;21.22;74.13;102297.16;5029621;28;20208;-47
2023/06/23 04:37:40;;;;;;;27.45;18.45;;;;;;;21.28;73.38;102310.38;5028808;28;20025;-44
2023/06/23 04:40:28;;;;;;;27.90;17.73;;;;;;;21.62;72.57;102303.88;5029797;28;20399;-45
2023/06/23 04:42:59;;;;;;;28.80;17.50;;;;;;;21.49;72.62;102306.63;5029786;28;20121;-45
2023/06/23 04:45:27;;;;;;;26.33;16.65;;;;;;;21.52;72.25;102304.84;5029282;28;20404;-46
2023/06/23 04:48:03;;;;;;;25.88;16.02;;;;;;;21.39;72.34;102305.84;5029226;28;20034;-45
2023/06/23 04:50:31;;;;;;;24.02;15.45;;;;;;;21.32;72.87;102306.78;5029271;28;20079;-44
2023/06/23 04:53:03;;;;;;;21.77;15.38;;;;;;;21.51;72.62;102313.69;5032939;28;20029;-44
2023/06/23 04:55:32;;;;;;;20.23;14.73;;;;;;;21.45;71.91;102316.41;5032571;28;20060;-46
2023/06/23 04:57:59;;;;;;;21.48;14.20;;;;;;;21.47;71.26;102316.41;5030095;28;20480;-44
2023/06/23 05:00:25;;;;;;;20.27;13.15;;;;;;;21.37;71.60;102311.16;5029558;28;20044;-44
2023/06/23 05:02:55;;;;;;;22.05;13.70;;;;;;;21.21;71.60;102306.88;5029511;28;20026;-47
2023/06/23 05:05:25;;;;;;;22.65;14.07;;;;;;;21.58;71.32;102310.09;5028951;28;20076;-46
2023/06/23 05:07:52;;;;;;;19.00;13.63;;;;;;;21.48;71.38;102312.84;5029350;28;20496;-49
2023/06/23 05:10:23;;;;;;;20.27;13.43;;;;;;;21.78;71.76;102317.84;5029375;28;20504;-45
2023/06/23 05:12:51;;;;;;;18.17;12.50;;;;;;;21.94;70.31;102330.09;5029993;28;20037;-45
2023/06/23 05:15:20;;;;;;;18.42;12.43;;;;;;;21.62;70.09;102332.19;5029427;28;20041;-50
2023/06/23 05:17:49;;;;;;;18.02;11.70;;;;;;;21.40;70.86;102340.34;5029007;28;20029;-46
2023/06/23 05:20:19;;;;;;;17.20;11.30;;;;;;;21.37;71.26;102340.34;5033497;28;20053;-45
2023/06/23 05:22:47;;;;;;;15.20;10.73;;;;;;;21.35;71.01;102346.53;5033875;28;20445;-42
2023/06/23 05:25:14;;;;;;;15.05;9.45;;;;;;;21.51;70.17;102349.97;5033259;28;20041;-45
2023/06/23 05:27:44;;;;;;;12.38;8.63;;;;;;;21.39;70.83;102354.50;5032407;28;20567;-45
2023/06/23 05:30:15;;;;;;;12.85;8.45;;;;;;;21.80;68.90;102355.88;5032898;28;20037;-44
2023/06/23 05:32:42;;;;;;;11.98;7.95;;;;;;;21.56;69.56;102362.31;5032745;28;20125;-46
2023/06/23 05:35:09;;;;;;;10.50;7.43;;;;;;;21.93;68.27;102365.50;5033104;28;20034;-46
2023/06/23 05:37:37;;;;;;;10.10;7.30;;;;;;;21.88;68.78;102367.31;5032081;28;20052;-44
2023/06/23 05:40:04;;;;;;;9.73;7.00;;;;;;;22.45;67.09;102370.25;5032565;28;20072;-45
2023/06/23 05:42:32;;;;;;;9.93;7.28;;;;;;;22.17;67.21;102364.41;5032475;28;20038;-43
2023/06/23 05:44:59;;;;;;;10.00;6.95;;;;;;;21.83;67.36;102362.03;5032661;28;20091;-47
2023/06/23 05:47:28;;;;;;;9.50;7.18;;;;;;;21.91;67.54;102369.94;5031614;28;20036;-45
2023/06/23 05:49:59;;;;;;;9.32;7.22;;;;;;;22.04;67.54;102362.75;5032634;28;20044;-49
2023/06/23 05:52:28;;;;;;;8.20;6.78;;;;;;;22.04;67.55;102360.09;5032325;28;20123;-44
2023/06/23 05:54:55;;;;;;;9.73;7.25;;;;;;;21.71;68.14;102362.16;5032758;28;20089;-44
2023/06/23 05:57:41;;;;;;;8.70;7.13;;;;;;;22.09;66.81;102368.91;5031480;28;20037;-47
2023/06/23 06:00:10;;;;;;;9.80;7.10;;;;;;;22.67;65.82;102372.66;5032274;28;20495;-48
2023/06/23 06:02:39;;;;;;;10.98;6.53;;;;;;;23.32;62.14;102385.94;5031786;28;20118;-44
2023/06/23 06:05:07;;;;;;;10.23;7.05;;;;;;;23.96;60.15;102374.25;5032325;28;20431;-43
2023/06/23 06:07:34;;;;;;;9.13;7.20;;;;;;;24.76;57.94;102379.78;5031292;28;20037;-49
2023/06/23 06:10:02;;;;;;;11.77;7.90;;;;;;;24.40;57.99;102376.94;5032089;28;20026;-45
2023/06/23 06:12:28;;;;;;;9.50;7.88;;;;;;;24.78;56.35;102381.47;5029937;28;20061;-46
2023/06/23 06:15:00;;;;;;;11.90;8.90;;;;;;;24.61;57.64;102383.63;5032733;28;20029;-46
2023/06/23 06:17:27;;;;;;;13.65;8.63;;;;;;;25.19;56.83;102385.06;5031990;28;20042;-49
2023/06/23 06:19:58;;;;;;;13.77;8.63;;;;;;;25.58;54.38;102391.25;5032676;28;20081;-48
2023/06/23 06:22:25;;;;;;;10.48;8.35;;;;;;;26.96;50.59;102390.09;5030203;28;20037;-49
2023/06/23 06:24:52;;;;;;;10.43;7.57;;;;;;;28.15;46.68;102387.03;5032904;28;20040;-45
2023/06/23 06:27:19;;;;;;;13.45;8.15;;;;;;;27.29;49.56;102401.53;5031665;28;20040;-49
2023/06/23 06:29:47;;;;;;;12.00;8.00;;;;;;;27.23;48.45;102391.91;5031375;28;20060;-46
2023/06/23 06:32:14;;;;;;;11.32;7.50;;;;;;;28.12;45.98;102387.97;5031859;28;20037;-48
2023/06/23 06:34:41;;;;;;;9.15;7.28;;;;;;;28.79;44.18;102387.38;5031890;28;20087;-44
2023/06/23 06:37:08;;;;;;;9.77;7.78;;;;;;;27.88;47.90;102383.50;5031435;28;20029;-47
2023/06/23 06:39:35;;;;;;;8.30;6.90;;;;;;;29.62;41.68;102391.16;5030996;28;20038;-47
2023/06/23 06:42:01;;;;;;;8.73;6.50;;;;;;;29.52;42.05;102396.03;5030344;28;20037;-47
2023/06/23 06:44:26;;;;;;;7.90;6.60;;;;;;;28.65;44.81;102399.47;5031136;28;20037;-47
2023/06/23 06:46:52;;;;;;;8.77;6.70;;;;;;;29.26;42.56;102396.22;5031006;28;20157;-48
2023/06/23 06:49:20;;;;;;;8.25;6.30;;;;;;;29.16;43.07;102400.19;5030656;28;20049;-45
2023/06/23 06:51:46;;;;;;;9.02;6.50;;;;;;;28.66;44.92;102405.72;5031415;28;20030;-46
2023/06/23 06:54:11;;;;;;;7.82;6.57;;;;;;;27.80;46.09;102417.75;5031140;28;20056;-46
2023/06/23 06:56:38;;;;;;;8.73;6.53;;;;;;;28.56;44.42;102412.34;5031164;28;20040;-44
2023/06/23 06:59:04;;;;;;;8.30;6.18;;;;;;;30.44;41.25;102403.69;5031831;28;20645;-43
2023/06/23 07:01:29;;;;;;;7.47;5.13;;;;;;;31.55;38.19;102411.84;5031551;28;20092;-47
2023/06/23 07:03:56;;;;;;;8.10;5.13;;;;;;;31.99;36.50;102413.19;5029657;28;20040;-46
2023/06/23 07:06:21;;;;;;;13.38;6.47;;;;;;;29.96;40.29;102418.38;5030368;28;20053;-47
2023/06/23 07:08:47;;;;;;;10.48;7.15;;;;;;;29.38;41.74;102419.94;5031193;28;20053;-45
2023/06/23 07:11:13;;;;;;;9.13;6.28;;;;;;;28.83;42.77;102421.22;5030943;28;20030;-47
2023/06/23 07:13:38;;;;;;;8.63;6.88;;;;;;;28.56;43.48;102431.13;5030426;28;20033;-47
2023/06/23 07:16:04;;;;;;;9.43;7.38;;;;;;;28.23;44.85;102430.56;5030767;28;20036;-49
2023/06/23 07:18:30;;;;;;;10.50;7.15;;;;;;;27.65;46.20;102434.31;5030346;28;20067;-46
2023/06/23 07:20:55;;;;;;;9.52;7.00;;;;;;;28.59;43.84;102431.03;5030700;28;20056;-49
2023/06/23 07:23:21;;;;;;;9.00;6.65;;;;;;;28.85;44.08;102430.94;5030267;28;20049;-46
2023/06/23 07:25:47;;;;;;;10.65;6.97;;;;;;;28.51;44.50;102439.34;5030324;28;20053;-47
2023/06/23 07:28:12;;;;;;;9.20;7.00;;;;;;;28.05;45.10;102436.53;5030644;28;20033;-47
2023/06/23 07:30:39;;;;;;;10.77;7.53;;;;;;;27.87;45.72;102445.22;5030152;28;20372;-51
2023/06/23 07:33:05;;;;;;;13.13;7.47;;;;;;;28.44;44.16;102439.63;5030707;28;20499;-53
2023/06/23 07:35:30;;;;;;;9.20;7.03;;;;;;;29.01;44.21;102444.66;5030347;28;20099;-48
2023/06/23 07:37:55;;;;;;;10.55;7.30;;;;;;;28.83;43.72;102448.06;5030151;28;20395;-45
2023/06/23 07:40:21;;;;;;;9.40;6.15;;;;;;;29.25;42.78;102449.06;5029694;28;20064;-45
2023/06/23 07:42:46;;;;;;;8.27;6.53;;;;;;;28.62;44.01;102455.94;5030003;28;20156;-45
2023/06/23 07:45:11;;;;;;;8.68;6.20;;;;;;;28.67;44.86;102461.13;5030460;28;20492;-45
2023/06/23 07:47:38;;;;;;;9.43;6.50;;;;;;;29.92;40.71;102453.53;5028963;28;20060;-47
2023/06/23 07:50:04;;;;;;;10.35;6.35;;;;;;;29.14;43.11;102456.69;5030433;28;20052;-51
2023/06/23 07:52:29;;;;;;;8.27;6.55;;;;;;;28.83;44.19;102456.97;5030162;28;20068;-54
2023/06/23 07:54:55;;;;;;;8.55;6.60;;;;;;;28.88;43.52;102459.47;5030605;28;20034;-48
2023/06/23 07:57:21;;;;;;;9.70;6.22;;;;;;;28.56;44.50;102464.22;5030329;28;20091;-49
2023/06/23 07:59:47;;;;;;;7.85;5.90;;;;;;;28.63;43.69;102459.50;5030764;28;20518;-44
2023/06/23 08:02:12;;;;;;;8.93;6.70;;;;;;;27.95;45.34;102457.41;5030286;28;20120;-48
2023/06/23 08:04:38;;;;;;;10.60;6.43;;;;;;;28.92;43.07;102453.94;5029815;28;20052;-44
2023/06/23 08:07:04;;;;;;;7.70;6.13;;;;;;;27.96;44.56;102464.53;5029654;28;20116;-48
2023/06/23 08:09:29;;;;;;;8.60;6.40;;;;;;;28.54;43.65;102463.41;5028236;28;20096;-44
2023/06/23 08:11:54;;;;;;;8.73;6.53;;;;;;;27.71;44.65;102466.28;5030179;28;20132;-51
2023/06/23 08:14:20;;;;;;;9.55;6.50;;;;;;;28.67;44.16;102464.69;5029471;28;20497;-49
2023/06/23 08:16:47;;;;;;;9.30;6.43;;;;;;;27.89;44.82;102478.19;5029699;28;20036;-45
2023/06/23 08:19:12;;;;;;;6.70;5.72;;;;;;;28.72;43.23;102477.06;5029916;28;20549;-46
2023/06/23 08:21:37;;;;;;;8.10;6.35;;;;;;;28.68;44.19;102470.94;5029446;28;20029;-47
2023/06/23 08:24:03;;;;;;;8.55;6.65;;;;;;;27.88;45.36;102473.75;5029729;28;20124;-46
2023/06/23 08:26:28;;;;;;;8.50;5.90;;;;;;;27.96;44.44;102475.25;5029072;28;20033;-45
2023/06/23 08:28:54;;;;;;;8.40;6.65;;;;;;;27.46;45.11;102480.44;5029741;28;20045;-45
2023/06/23 08:31:19;;;;;;;8.32;6.07;;;;;;;27.38;44.54;102479.81;5029090;28;20037;-45
2023/06/23 08:33:45;;;;;;;8.45;6.10;;;;;;;27.84;43.97;102484.59;5029652;28;20041;-44
2023/06/23 08:36:10;;;;;;;8.30;6.35;;;;;;;28.37;44.05;102476.53;5029077;28;20045;-45
2023/06/23 08:38:35;;;;;;;8.48;6.60;;;;;;;28.77;42.47;102477.81;5029108;28;20073;-45
2023/06/23 08:41:01;;;;;;;7.00;5.53;;;;;;;29.19;41.58;102477.97;5029199;28;20032;-45
2023/06/23 08:43:27;;;;;;;10.85;5.90;;;;;;;27.73;43.11;102483.19;5029113;28;20132;-46
2023/06/23 08:45:56;;;;;;;10.55;7.22;;;;;;;26.70;46.83;102484.50;5029174;28;20080;-48
2023/06/23 08:48:25;;;;;;;10.02;7.10;;;;;;;26.62;48.71;102484.72;5029052;28;20037;-50
2023/06/23 08:50:53;;;;;;;8.27;6.63;;;;;;;26.56;47.88;102484.00;5029440;28;20060;-51
2023/06/23 08:53:20;;;;;;;9.75;6.20;;;;;;;26.59;45.69;102481.25;5028539;28;20029;-45
2023/06/23 08:55:45;;;;;;;9.30;5.80;;;;;;;26.30;47.01;102483.81;5029305;28;20034;-47
2023/06/23 08:58:11;;;;;;;7.10;5.65;;;;;;;27.17;44.22;102484.94;5030538;28;20107;-47
2023/06/23 09:00:36;;;;;;;10.02;5.55;;;;;;;27.03;44.45;102491.56;5029067;28;20447;-44
2023/06/23 09:03:03;;;;;;;8.70;6.43;;;;;;;26.74;46.26;102491.50;5028337;28;20107;-46
2023/06/23 09:05:28;;;;;;;6.95;5.40;;;;;;;27.54;44.73;102495.41;5029285;28;20510;-47
2023/06/23 09:07:54;;;;;;;9.00;6.28;;;;;;;26.20;47.63;102492.06;5028792;28;20041;-49
2023/06/23 09:10:19;;;;;;;8.45;6.05;;;;;;;26.71;45.96;102493.41;5029499;28;20033;-48
2023/06/23 09:13:12;;;;;;;8.88;6.35;;;;;;;26.88;45.45;102488.44;5029800;28;20040;-45
2023/06/23 09:15:38;;;;;;;8.60;5.50;;;;;;;26.71;45.53;102490.75;5030228;28;20450;-47
2023/06/23 09:18:05;;;;;;;8.20;5.30;;;;;;;27.05;44.14;102491.53;5031521;28;20025;-46
2023/06/23 09:20:30;;;;;;;6.97;5.22;;;;;;;27.50;43.40;102501.78;5031237;28;20029;-49
2023/06/23 09:22:57;;;;;;;7.55;6.10;;;;;;;26.57;46.49;102499.13;5030476;28;20528;-46
2023/06/23 09:25:37;;;;;;;6.75;5.05;;;;;;;27.31;44.02;102504.16;5029320;28;20492;-48
2023/06/23 09:28:03;;;;;;;6.65;5.35;;;;;;;26.52;44.37;102504.63;5031959;28;20053;-48
2023/06/23 09:30:35;;;;;;;8.88;5.60;;;;;;;26.78;44.10;102506.56;5034178;28;20557;-49
2023/06/23 09:33:05;;;;;;;7.35;4.90;;;;;;;26.71;44.19;102498.78;5033665;28;20033;-49
2023/06/23 09:35:30;;;;;;;8.15;6.18;;;;;;;26.89;44.56;102506.31;5029510;28;20037;-45
2023/06/23 09:37:56;;;;;;;8.32;5.60;;;;;;;27.82;42.81;102502.50;5028597;28;20083;-44
2023/06/23 09:40:26;;;;;;;6.68;4.60;;;;;;;27.19;40.68;102502.72;5028913;28;20033;-49
2023/06/23 09:42:59;;;;;;;6.38;4.88;;;;;;;27.25;41.58;102504.34;5029019;28;20487;-44
2023/06/23 09:45:25;;;;;;;6.35;4.90;;;;;;;27.67;40.02;102508.38;5028678;28;20045;-45
2023/06/23 09:47:50;;;;;;;7.78;5.40;;;;;;;26.78;42.53;102505.66;5028249;28;20478;-45
2023/06/23 09:50:17;;;;;;;7.28;5.30;;;;;;;26.75;43.05;102509.34;5028681;28;20467;-48
2023/06/23 09:52:43;;;;;;;11.65;5.28;;;;;;;27.10;40.98;102507.47;5028179;28;20087;-49
2023/06/23 09:55:08;;;;;;;8.30;5.22;;;;;;;27.19;41.51;102515.22;5028762;28;20033;-51
2023/06/23 09:57:33;;;;;;;6.00;4.72;;;;;;;26.88;40.39;102513.44;5028092;28;20071;-50
2023/06/23 10:00:00;;;;;;;5.38;4.10;;;;;;;27.80;39.83;102508.88;5028773;28;20084;-46
2023/06/23 10:02:27;;;;;;;5.57;4.22;;;;;;;27.63;37.74;102506.72;5028754;28;20049;-46
2023/06/23 10:05:01;;;;;;;6.65;4.43;;;;;;;27.57;37.96;102509.59;5030540;28;20491;-44
2023/06/23 10:07:27;;;;;;;11.80;4.53;;;;;;;27.30;38.32;102515.78;5031391;28;20037;-47
2023/06/23 10:10:01;;;;;;;5.95;4.25;;;;;;;27.34;38.63;102515.63;5032368;28;20041;-50
2023/06/23 10:12:28;;;;;;;6.07;3.58;;;;;;;27.56;34.88;102512.34;5029844;28;20496;-47
2023/06/23 10:14:55;;;;;;;4.88;3.80;;;;;;;27.32;36.53;102516.63;5032292;28;20116;-47
2023/06/23 10:17:21;;;;;;;5.75;4.13;;;;;;;27.56;36.19;102518.56;5031271;28;20040;-47
2023/06/23 10:19:48;;;;;;;5.47;4.10;;;;;;;28.12;37.62;102505.09;5031851;28;20443;-49
2023/06/23 10:22:19;;;;;;;5.32;4.20;;;;;;;27.40;38.49;102503.84;5032111;28;20354;-44
2023/06/23 10:24:47;;;;;;;6.28;4.20;;;;;;;27.82;37.47;102505.19;5031513;28;20033;-45
2023/06/23 10:27:21;;;;;;;5.50;3.90;;;;;;;27.57;37.24;102504.22;5031604;28;20120;-47
2023/06/23 10:29:50;;;;;;;6.32;3.17;;;;;;;27.18;34.89;102508.13;5031630;28;20478;-47
2023/06/23 10:32:17;;;;;;;6.18;3.40;;;;;;;27.18;35.30;102506.31;5031953;28;20106;-50
2023/06/23 10:34:44;;;;;;;4.88;3.45;;;;;;;27.40;34.96;102518.13;5031544;28;20476;-46
2023/06/23 10:37:15;;;;;;;4.50;3.40;;;;;;;27.99;34.54;102515.38;5031248;28;20535;-50
2023/06/23 10:39:47;;;;;;;5.15;3.10;;;;;;;28.01;33.27;102512.63;5031187;28;20036;-45
2023/06/23 10:42:15;;;;;;;4.88;3.40;;;;;;;27.87;33.54;102522.94;5031654;28;20120;-48
2023/06/23 10:44:41;;;;;;;6.78;3.85;;;;;;;28.02;35.06;102528.66;5031074;28;20045;-49
2023/06/23 10:47:08;;;;;;;9.90;4.30;;;;;;;28.11;35.10;102530.19;5031532;28;20030;-48
2023/06/23 10:49:33;;;;;;;4.65;3.78;;;;;;;27.84;36.97;102527.47;5030902;28;20052;-47
2023/06/23 10:52:00;;;;;;;5.43;3.78;;;;;;;27.75;34.32;102533.13;5031523;28;20026;-47
2023/06/23 10:54:27;;;;;;;6.85;3.80;;;;;;;27.64;34.89;102529.03;5031229;28;20056;-47
2023/06/23 10:56:53;;;;;;;9.23;3.60;;;;;;;27.88;34.31;102533.59;5031512;28;20041;-48
2023/06/23 10:59:29;;;;;;;6.72;3.45;;;;;;;27.84;34.58;102532.84;5031048;28;20041;-51
2023/06/23 11:02:00;;;;;;;3.95;3.00;;;;;;;28.82;31.89;102530.38;5032258;28;20379;-50
2023/06/23 11:04:27;;;;;;;4.95;2.83;;;;;;;28.71;31.49;102529.88;5031984;28;20383;-45
2023/06/23 11:07:09;;;;;;;3.83;3.00;;;;;;;28.60;31.25;102524.03;5031479;28;20677;-44
2023/06/23 11:09:54;;;;;;;4.13;2.65;;;;;;;29.05;29.42;102519.66;5030935;28;20045;-46
2023/06/23 11:12:36;;;;;;;4.30;2.95;;;;;;;28.96;30.49;102521.84;5030818;28;20041;-46
2023/06/23 11:15:20;;;;;;;3.88;3.00;;;;;;;28.84;31.46;102528.53;5031454;28;20037;-46
2023/06/23 11:17:58;;;;;;;4.18;3.00;;;;;;;28.96;31.80;102521.84;5030307;28;20086;-50
2023/06/23 11:20:24;;;;;;;4.40;2.90;;;;;;;28.80;30.97;102531.38;5032438;28;20041;-44
2023/06/23 11:22:59;;;;;;;5.88;3.20;;;;;;;28.42;31.73;102530.88;5033168;28;20045;-49